BRU913 UMBB-UUEE
Flight info
| Callsign | BRU913 |
|---|---|
| Flight time | N/A |
| Altitude | 33000 |
| Route | DOMAN1B DOMAN T52 PINUG L999 BUSIN T52 KOLOS L999 LAPKI N869 RATIN L999 AGLAN M864 DIPOP DIPOP3F |
| Aircraft | B738/M-SDE2E3FGHIRWXY/LB1 |
Departure
| Time | 2026-04-29 12:08 |
|---|---|
| Airport | Brest International Airport (UMBB) |
Arrival
| Time | N/A |
|---|---|
| Airport | Sheremetyevo International Airport (UUEE) |
| Time | Latitude | Longitude | Altitude | Speed | Heading |
|---|---|---|---|---|---|
| 2026-04-29 12:01 | 52.11084 | 23.89932 | 458 ft | 0 kts | 114° |
| 2026-04-29 12:04 | 52.11073 | 23.89962 | 458 ft | 8 kts | 130° |
| 2026-04-29 12:04 | 52.11005 | 23.89939 | 458 ft | 12 kts | 211° |
| 2026-04-29 12:04 | 52.10995 | 23.89842 | 458 ft | 9 kts | 273° |
| 2026-04-29 12:05 | 52.10932 | 23.89760 | 458 ft | 15 kts | 202° |
| 2026-04-29 12:05 | 52.10814 | 23.89723 | 458 ft | 20 kts | 143° |
| 2026-04-29 12:05 | 52.10742 | 23.89957 | 458 ft | 26 kts | 113° |
| 2026-04-29 12:05 | 52.10650 | 23.90299 | 458 ft | 38 kts | 114° |
| 2026-04-29 12:06 | 52.10512 | 23.90789 | 458 ft | 54 kts | 115° |
| 2026-04-29 12:06 | 52.10399 | 23.91248 | 458 ft | 27 kts | 97° |
| 2026-04-29 12:06 | 52.10434 | 23.91474 | 455 ft | 15 kts | 50° |
| 2026-04-29 12:06 | 52.10452 | 23.91503 | 455 ft | 8 kts | 43° |
| 2026-04-29 12:07 | 52.10365 | 23.91326 | 457 ft | 0 kts | 294° |
| 2026-04-29 12:07 | 52.10368 | 23.91318 | 458 ft | 9 kts | 294° |
| 2026-04-29 12:07 | 52.10520 | 23.90761 | 458 ft | 96 kts | 293° |
| 2026-04-29 12:08 | 52.10899 | 23.89373 | 460 ft | 169 kts | 294° |
| 2026-04-29 12:08 | 52.11425 | 23.87474 | 983 ft | 198 kts | 294° |
| 2026-04-29 12:08 | 52.12189 | 23.85532 | 1789 ft | 216 kts | 324° |
| 2026-04-29 12:08 | 52.13596 | 23.84865 | 2775 ft | 225 kts | 6° |
| 2026-04-29 12:09 | 52.14876 | 23.85738 | 3720 ft | 230 kts | 43° |
| 2026-04-29 12:09 | 52.15642 | 23.87998 | 4777 ft | 234 kts | 83° |
| 2026-04-29 12:09 | 52.15519 | 23.90567 | 5833 ft | 236 kts | 95° |
| 2026-04-29 12:09 | 52.15510 | 23.92992 | 6775 ft | 239 kts | 87° |
| 2026-04-29 12:10 | 52.15638 | 23.95678 | 7813 ft | 241 kts | 84° |
| 2026-04-29 12:10 | 52.15812 | 23.98326 | 8733 ft | 246 kts | 83° |
| 2026-04-29 12:10 | 52.16014 | 24.01092 | 9638 ft | 251 kts | 83° |
| 2026-04-29 12:10 | 52.16441 | 24.03768 | 10488 ft | 255 kts | 60° |
| 2026-04-29 12:11 | 52.17408 | 24.06061 | 11429 ft | 254 kts | 52° |
| 2026-04-29 12:11 | 52.18427 | 24.08182 | 12264 ft | 256 kts | 51° |
| 2026-04-29 12:11 | 52.19489 | 24.10344 | 13125 ft | 256 kts | 51° |
| 2026-04-29 12:11 | 52.20558 | 24.12510 | 13987 ft | 255 kts | 51° |
| 2026-04-29 12:12 | 52.21664 | 24.14750 | 14881 ft | 252 kts | 51° |
| 2026-04-29 12:12 | 52.22733 | 24.16921 | 15747 ft | 247 kts | 51° |
| 2026-04-29 12:12 | 52.23797 | 24.19081 | 16600 ft | 242 kts | 51° |
| 2026-04-29 12:12 | 52.24826 | 24.21174 | 17378 ft | 238 kts | 51° |
| 2026-04-29 12:13 | 52.25889 | 24.23340 | 17829 ft | 248 kts | 51° |
| 2026-04-29 12:13 | 52.26998 | 24.25603 | 18357 ft | 255 kts | 51° |
| 2026-04-29 12:13 | 52.28140 | 24.27935 | 18881 ft | 262 kts | 51° |
| 2026-04-29 12:13 | 52.29312 | 24.30332 | 19406 ft | 269 kts | 51° |
| 2026-04-29 12:14 | 52.30525 | 24.32818 | 19936 ft | 275 kts | 51° |
| 2026-04-29 12:14 | 52.31749 | 24.35330 | 20459 ft | 281 kts | 51° |
| 2026-04-29 12:14 | 52.32995 | 24.37891 | 21003 ft | 286 kts | 51° |
| 2026-04-29 12:14 | 52.34286 | 24.40550 | 21555 ft | 291 kts | 51° |
| 2026-04-29 12:15 | 52.35541 | 24.43140 | 22085 ft | 295 kts | 51° |
| 2026-04-29 12:15 | 52.36782 | 24.45703 | 22601 ft | 298 kts | 51° |
| 2026-04-29 12:15 | 52.38009 | 24.48242 | 23100 ft | 301 kts | 51° |
| 2026-04-29 12:15 | 52.39191 | 24.50694 | 23573 ft | 304 kts | 51° |
| 2026-04-29 12:16 | 52.40557 | 24.53535 | 24111 ft | 306 kts | 51° |
| 2026-04-29 12:16 | 52.41923 | 24.56387 | 24642 ft | 309 kts | 51° |
| 2026-04-29 12:16 | 52.43233 | 24.59121 | 25138 ft | 311 kts | 51° |
| 2026-04-29 12:16 | 52.44578 | 24.61932 | 25642 ft | 312 kts | 51° |
| 2026-04-29 12:17 | 52.45955 | 24.64810 | 26153 ft | 313 kts | 51° |
| 2026-04-29 12:17 | 52.47311 | 24.67651 | 26655 ft | 314 kts | 52° |
| 2026-04-29 12:17 | 52.48686 | 24.70535 | 27161 ft | 314 kts | 52° |
| 2026-04-29 12:17 | 52.50040 | 24.73381 | 27659 ft | 313 kts | 52° |
| 2026-04-29 12:18 | 52.51402 | 24.76248 | 28161 ft | 312 kts | 52° |
| 2026-04-29 12:18 | 52.52754 | 24.79102 | 28660 ft | 310 kts | 52° |
| 2026-04-29 12:18 | 52.54106 | 24.81959 | 29161 ft | 307 kts | 52° |
| 2026-04-29 12:18 | 52.55392 | 24.84733 | 29593 ft | 306 kts | 54° |
| 2026-04-29 12:19 | 52.56687 | 24.87646 | 29950 ft | 307 kts | 54° |
| 2026-04-29 12:19 | 52.57966 | 24.90513 | 30312 ft | 308 kts | 53° |
| 2026-04-29 12:19 | 52.59256 | 24.93407 | 30671 ft | 308 kts | 53° |
| 2026-04-29 12:19 | 52.60553 | 24.96316 | 31030 ft | 308 kts | 53° |
| 2026-04-29 12:20 | 52.61843 | 24.99213 | 31388 ft | 308 kts | 53° |
| 2026-04-29 12:20 | 52.63132 | 25.02111 | 31739 ft | 307 kts | 53° |
| 2026-04-29 12:20 | 52.64411 | 25.04991 | 32091 ft | 306 kts | 53° |
| 2026-04-29 12:20 | 52.65678 | 25.07849 | 32434 ft | 304 kts | 54° |
| 2026-04-29 12:21 | 52.66935 | 25.10692 | 32777 ft | 302 kts | 54° |
| 2026-04-29 12:21 | 52.68203 | 25.13561 | 32980 ft | 306 kts | 54° |
| 2026-04-29 12:21 | 52.70808 | 25.19469 | 33012 ft | 325 kts | 54° |
| 2026-04-29 12:22 | 52.72159 | 25.22536 | 33021 ft | 336 kts | 54° |
| 2026-04-29 12:22 | 52.73514 | 25.25618 | 33045 ft | 345 kts | 54° |
| 2026-04-29 12:22 | 52.74966 | 25.28924 | 33061 ft | 356 kts | 54° |
| 2026-04-29 12:22 | 52.76419 | 25.32237 | 33067 ft | 367 kts | 54° |
| 2026-04-29 12:23 | 52.77933 | 25.35695 | 33074 ft | 378 kts | 54° |
| 2026-04-29 12:23 | 52.79531 | 25.39349 | 33078 ft | 390 kts | 54° |
| 2026-04-29 12:23 | 52.81081 | 25.42899 | 33081 ft | 401 kts | 54° |
| 2026-04-29 12:23 | 52.82554 | 25.46275 | 33083 ft | 411 kts | 54° |
| 2026-04-29 12:24 | 52.84290 | 25.50262 | 33088 ft | 423 kts | 54° |
| 2026-04-29 12:24 | 52.86055 | 25.54322 | 33090 ft | 434 kts | 54° |
| 2026-04-29 12:24 | 52.87854 | 25.58466 | 33093 ft | 446 kts | 54° |
| 2026-04-29 12:24 | 52.89702 | 25.62730 | 33097 ft | 457 kts | 54° |
| 2026-04-29 12:25 | 52.91613 | 25.67145 | 33103 ft | 469 kts | 54° |
| 2026-04-29 12:25 | 52.93567 | 25.71671 | 33102 ft | 476 kts | 54° |
| 2026-04-29 12:26 | 52.99390 | 25.85198 | 33004 ft | 472 kts | 54° |
| 2026-04-29 12:26 | 53.03238 | 25.94176 | 33000 ft | 472 kts | 54° |
| 2026-04-29 12:27 | 53.07115 | 26.03257 | 33000 ft | 473 kts | 54° |
| 2026-04-29 12:27 | 53.10965 | 26.12306 | 33000 ft | 472 kts | 54° |
| 2026-04-29 12:28 | 53.14820 | 26.21398 | 33000 ft | 473 kts | 54° |
| 2026-04-29 12:28 | 53.18670 | 26.30511 | 33000 ft | 473 kts | 54° |
| 2026-04-29 12:29 | 53.22382 | 26.39330 | 33000 ft | 473 kts | 54° |
| 2026-04-29 12:29 | 53.26189 | 26.48406 | 33000 ft | 473 kts | 54° |
| 2026-04-29 12:30 | 53.29984 | 26.57532 | 33000 ft | 473 kts | 54° |
| 2026-04-29 12:30 | 53.33752 | 26.66653 | 33000 ft | 473 kts | 56° |
| 2026-04-29 12:31 | 53.37506 | 26.75771 | 33000 ft | 473 kts | 56° |
| 2026-04-29 12:31 | 53.41147 | 26.84646 | 33000 ft | 473 kts | 56° |
| 2026-04-29 12:32 | 53.44823 | 26.93638 | 33000 ft | 473 kts | 56° |
| 2026-04-29 12:32 | 53.48577 | 27.02802 | 33000 ft | 473 kts | 55° |
| 2026-04-29 12:33 | 53.52341 | 27.12007 | 33000 ft | 473 kts | 55° |
| 2026-04-29 12:33 | 53.56107 | 27.21251 | 33000 ft | 473 kts | 55° |
| 2026-04-29 12:34 | 53.59825 | 27.30411 | 33000 ft | 473 kts | 55° |
| 2026-04-29 12:34 | 53.63591 | 27.39726 | 33000 ft | 473 kts | 55° |
| 2026-04-29 12:35 | 53.67316 | 27.48970 | 33000 ft | 473 kts | 55° |
| 2026-04-29 12:35 | 53.71027 | 27.58213 | 33000 ft | 473 kts | 55° |
| 2026-04-29 12:36 | 53.74321 | 27.66449 | 33000 ft | 473 kts | 56° |
| 2026-04-29 12:36 | 53.77741 | 27.75027 | 33000 ft | 473 kts | 56° |
| 2026-04-29 12:37 | 53.80783 | 27.82681 | 33000 ft | 473 kts | 56° |